createdAt,value
2019-04-21T00:00:55.414Z,12.13
2019-04-21T00:03:27.477Z,11.80
2019-04-21T00:06:18.389Z,13.97
2019-04-21T00:08:50.580Z,14.93
2019-04-21T00:11:26.464Z,16.20
2019-04-21T00:13:51.443Z,15.53
2019-04-21T00:16:10.869Z,13.60
2019-04-21T00:19:17.238Z,12.73
2019-04-21T00:21:50.975Z,13.90
2019-04-21T00:24:30.489Z,14.50
2019-04-21T00:27:05.249Z,14.07
2019-04-21T00:29:45.204Z,13.77
2019-04-21T00:32:10.459Z,12.00
2019-04-21T00:34:30.171Z,12.20
2019-04-21T00:37:12.285Z,12.93
2019-04-21T00:40:00.218Z,13.00
2019-04-21T00:42:32.682Z,14.93
2019-04-21T00:44:58.947Z,14.13
2019-04-21T00:47:34.086Z,12.60
2019-04-21T00:50:08.095Z,12.70
2019-04-21T00:52:58.223Z,13.10
2019-04-21T00:58:19.447Z,13.00
2019-04-21T01:00:46.023Z,13.33
2019-04-21T01:03:20.610Z,12.93
2019-04-21T01:06:00.780Z,14.20
2019-04-21T01:08:23.477Z,13.07
2019-04-21T01:10:49.971Z,13.87
2019-04-21T01:13:39.473Z,12.90
2019-04-21T01:16:07.228Z,13.67
2019-04-21T01:18:32.407Z,12.93
2019-04-21T01:20:47.316Z,13.77
2019-04-21T01:23:19.217Z,13.37
2019-04-21T01:26:09.209Z,12.33
2019-04-21T01:28:40.067Z,13.60
2019-04-21T01:31:13.642Z,14.20
2019-04-21T01:33:50.851Z,13.20
2019-04-21T01:36:18.204Z,12.13
2019-04-21T01:39:01.128Z,13.63
2019-04-21T01:41:35.193Z,14.23
2019-04-21T01:43:55.600Z,13.50
2019-04-21T01:46:29.842Z,14.07
2019-04-21T01:49:02.160Z,13.90
2019-04-21T01:51:45.444Z,12.90
2019-04-21T01:54:35.582Z,14.93
2019-04-21T01:57:20.037Z,14.30
2019-04-21T01:59:43.898Z,14.57
2019-04-21T02:02:26.667Z,15.43
2019-04-21T02:05:05.812Z,14.97
2019-04-21T02:07:32.645Z,14.70
2019-04-21T02:10:04.809Z,14.87
2019-04-21T02:12:42.095Z,14.53
2019-04-21T02:15:11.328Z,14.57
2019-04-21T02:17:45.304Z,15.30
2019-04-21T02:20:09.481Z,13.60
2019-04-21T02:23:07.351Z,14.77
2019-04-21T02:25:26.327Z,13.80
2019-04-21T02:27:57.598Z,15.00
2019-04-21T02:33:23.175Z,17.70
2019-04-21T02:36:16.502Z,15.93
2019-04-21T02:38:34.270Z,15.90
2019-04-21T02:43:24.918Z,14.30
2019-04-21T02:46:04.757Z,15.10
2019-04-21T02:48:38.262Z,14.80
2019-04-21T02:51:10.775Z,14.77
2019-04-21T02:56:17.995Z,14.70
2019-04-21T02:59:12.387Z,15.67
2019-04-21T03:02:04.486Z,14.50
2019-04-21T03:04:43.116Z,15.50
2019-04-21T03:09:51.210Z,15.30
2019-04-21T03:12:38.068Z,17.60
2019-04-21T03:17:46.226Z,15.20
2019-04-21T03:20:15.066Z,16.07
2019-04-21T03:22:42.232Z,16.30
2019-04-21T03:25:25.149Z,16.07
2019-04-21T03:27:57.286Z,16.90
2019-04-21T03:38:14.688Z,16.47
2019-04-21T03:40:26.175Z,16.27
2019-04-21T03:43:04.934Z,16.23
2019-04-21T03:48:11.525Z,15.40
2019-04-21T03:50:44.781Z,15.80
2019-04-21T03:58:35.124Z,15.60
2019-04-21T04:14:47.452Z,18.70
2019-04-21T04:27:33.367Z,19.70
2019-04-21T04:30:07.998Z,20.00
2019-04-21T04:32:23.514Z,19.93
2019-04-21T04:34:57.193Z,18.33
2019-04-21T04:37:32.645Z,20.70
2019-04-21T04:42:56.907Z,19.40
2019-04-21T04:45:31.477Z,19.37
2019-04-21T04:48:11.918Z,20.00
2019-04-21T04:50:43.345Z,20.73
2019-04-21T04:53:15.688Z,20.00
2019-04-21T05:03:32.923Z,20.73
2019-04-21T05:09:07.714Z,22.23
2019-04-21T05:16:53.081Z,22.47
2019-04-21T05:19:14.623Z,22.37
2019-04-21T05:21:42.286Z,20.87
2019-04-21T05:24:08.199Z,22.47
2019-04-21T05:26:39.094Z,24.13
2019-04-21T05:29:11.014Z,23.40
2019-04-21T05:32:13.263Z,22.30
2019-04-21T05:34:31.627Z,23.57
2019-04-21T05:37:14.180Z,22.90
2019-04-21T05:39:47.985Z,22.23
2019-04-21T05:42:22.744Z,22.00
2019-04-21T05:45:09.174Z,23.13
2019-04-21T05:48:05.987Z,22.60
2019-04-21T05:50:27.522Z,21.57
2019-04-21T05:58:20.994Z,21.37
2019-04-21T06:03:41.112Z,20.60
2019-04-21T06:06:13.779Z,19.43
2019-04-21T06:08:49.682Z,20.50
2019-04-21T06:11:23.305Z,19.13
2019-04-21T06:13:55.143Z,19.20
2019-04-21T06:16:28.733Z,18.97
2019-04-21T06:18:58.734Z,18.90
2019-04-21T06:21:30.786Z,19.40
2019-04-21T06:24:08.408Z,18.43
2019-04-21T06:26:54.987Z,20.33
2019-04-21T06:29:13.469Z,18.40
2019-04-21T06:34:16.637Z,19.13
2019-04-21T06:37:07.827Z,17.90
2019-04-21T06:39:57.027Z,19.33
2019-04-21T06:42:10.887Z,18.50
2019-04-21T06:44:54.526Z,18.83
2019-04-21T06:47:27.673Z,18.50
2019-04-21T06:49:48.624Z,17.60
2019-04-21T06:55:05.382Z,18.07
2019-04-21T07:00:02.888Z,17.90
2019-04-21T07:02:50.739Z,17.63
2019-04-21T07:05:09.096Z,19.80
2019-04-21T07:07:43.434Z,18.50
2019-04-21T07:10:16.935Z,18.83
2019-04-21T07:12:46.604Z,17.87
2019-04-21T07:15:27.832Z,19.57
2019-04-21T07:23:22.684Z,19.67
2019-04-21T07:25:45.922Z,20.47
2019-04-21T07:28:17.530Z,19.17
2019-04-21T07:30:56.637Z,19.07
2019-04-21T07:33:50.893Z,19.23
2019-04-21T07:35:57.823Z,19.43
2019-04-21T07:38:28.588Z,19.50
2019-04-21T07:40:57.017Z,18.43
2019-04-21T07:43:43.776Z,19.27
2019-04-21T07:46:15.395Z,18.10
2019-04-21T07:48:58.530Z,16.67
2019-04-21T07:51:45.619Z,17.87
2019-04-21T07:54:23.776Z,16.70
2019-04-21T07:56:35.039Z,18.00
2019-04-21T07:59:27.272Z,18.00
2019-04-21T08:01:55.013Z,18.43
2019-04-21T08:04:49.632Z,18.43
2019-04-21T08:06:58.203Z,18.23
2019-04-21T08:09:38.989Z,17.60
2019-04-21T08:12:03.783Z,18.20
2019-04-21T08:14:43.929Z,17.67
2019-04-21T08:17:09.529Z,17.33
2019-04-21T08:19:44.602Z,16.13
2019-04-21T08:22:29.220Z,17.03
2019-04-21T08:24:50.852Z,17.37
2019-04-21T08:27:28.217Z,17.03
2019-04-21T08:29:58.342Z,15.67
2019-04-21T08:32:46.325Z,17.73
2019-04-21T08:35:20.695Z,16.30
2019-04-21T08:37:39.883Z,16.40
2019-04-21T08:42:50.791Z,16.50
2019-04-21T08:50:27.887Z,17.30
2019-04-21T08:53:03.890Z,16.10
2019-04-21T08:56:10.002Z,15.47
2019-04-21T08:58:54.887Z,15.13
2019-04-21T09:01:30.414Z,17.23
2019-04-21T09:03:59.416Z,15.70
2019-04-21T09:06:58.616Z,15.93
2019-04-21T09:09:10.891Z,15.50
2019-04-21T09:11:42.203Z,17.17
2019-04-21T09:14:13.862Z,17.47
2019-04-21T09:16:47.721Z,15.90
2019-04-21T09:19:33.977Z,17.20
2019-04-21T09:21:54.577Z,16.70
2019-04-21T09:24:26.985Z,15.80
2019-04-21T09:26:57.986Z,16.20
2019-04-21T09:29:26.472Z,16.90
2019-04-21T09:31:54.466Z,16.60
2019-04-21T09:34:31.859Z,16.83
2019-04-21T09:37:13.988Z,15.47
2019-04-21T09:39:31.559Z,16.10
2019-04-21T09:42:04.639Z,16.10
2019-04-21T09:44:40.124Z,16.70
2019-04-21T09:47:09.203Z,16.27
2019-04-21T09:49:43.131Z,13.63
2019-04-21T09:52:20.918Z,14.83
2019-04-21T09:54:56.618Z,15.47
2019-04-21T09:57:31.528Z,13.20
2019-04-21T10:00:02.244Z,14.60
2019-04-21T10:02:34.138Z,13.93
2019-04-21T10:05:00.175Z,13.70
2019-04-21T10:07:35.572Z,13.70
2019-04-21T10:10:05.897Z,14.00
2019-04-21T10:12:37.472Z,14.27
2019-04-21T10:15:10.748Z,14.80
2019-04-21T10:17:54.376Z,15.00
2019-04-21T10:20:26.459Z,13.50
2019-04-21T10:22:57.903Z,13.50
2019-04-21T10:25:30.526Z,12.93
2019-04-21T10:28:03.118Z,13.60
2019-04-21T10:30:36.440Z,11.10
2019-04-21T10:33:08.394Z,13.07
2019-04-21T10:35:41.204Z,11.70
2019-04-21T10:38:22.711Z,12.20
2019-04-21T10:40:45.844Z,13.70
2019-04-21T10:43:20.665Z,12.37
2019-04-21T10:45:50.716Z,11.93
2019-04-21T10:48:23.119Z,11.40
2019-04-21T10:50:54.905Z,12.13
2019-04-21T10:53:32.386Z,12.70
2019-04-21T10:56:15.692Z,12.60
2019-04-21T10:58:42.426Z,13.03
2019-04-21T11:01:23.189Z,11.40
2019-04-21T11:04:20.326Z,11.60
2019-04-21T11:06:46.844Z,11.00
2019-04-21T11:09:18.130Z,11.13
2019-04-21T11:11:51.372Z,8.90
2019-04-21T11:14:23.145Z,10.93
2019-04-21T11:16:55.146Z,9.70
2019-04-21T11:19:28.591Z,9.00
2019-04-21T11:22:01.026Z,9.50
2019-04-21T11:24:33.651Z,9.47
2019-04-21T11:27:04.969Z,10.80
2019-04-21T11:29:37.156Z,10.90
2019-04-21T11:32:09.318Z,11.73
2019-04-21T11:34:41.009Z,11.67
2019-04-21T11:37:14.382Z,11.00
2019-04-21T11:39:52.016Z,11.30
2019-04-21T11:42:28.235Z,11.90
2019-04-21T11:45:00.658Z,11.80
2019-04-21T11:47:36.704Z,10.50
2019-04-21T11:50:08.305Z,9.63
2019-04-21T11:52:40.797Z,9.80
2019-04-21T11:55:12.873Z,9.80
2019-04-21T11:57:49.463Z,10.57
2019-04-21T12:00:19.745Z,7.97
2019-04-21T12:02:51.265Z,8.87
2019-04-21T12:05:23.603Z,9.83
2019-04-21T12:07:58.274Z,9.60
2019-04-21T12:10:29.243Z,10.07
2019-04-21T12:13:01.379Z,11.80
2019-04-21T12:15:34.668Z,9.07
2019-04-21T12:18:06.241Z,10.30
2019-04-21T12:20:38.157Z,9.93
2019-04-21T12:23:09.495Z,10.60
2019-04-21T12:25:45.181Z,10.13
2019-04-21T12:28:17.427Z,11.10
2019-04-21T12:30:53.647Z,11.80
2019-04-21T12:34:00.298Z,11.33
2019-04-21T12:36:31.794Z,11.17
2019-04-21T12:39:05.190Z,14.10
2019-04-21T12:41:36.306Z,11.37
2019-04-21T12:44:08.810Z,11.70
2019-04-21T12:46:40.329Z,13.60
2019-04-21T12:49:11.922Z,11.83
2019-04-21T12:54:12.618Z,11.70
2019-04-21T12:56:43.883Z,9.95
2019-04-21T12:59:15.208Z,11.20
2019-04-21T13:01:46.616Z,9.63
2019-04-21T13:04:17.871Z,12.20
2019-04-21T13:06:49.835Z,10.33
2019-04-21T13:09:22.247Z,9.90
2019-04-21T13:11:55.061Z,10.77
2019-04-21T13:14:26.561Z,10.03
2019-04-21T13:16:57.746Z,8.67
2019-04-21T13:19:29.351Z,9.77
2019-04-21T13:22:01.613Z,9.80
2019-04-21T13:24:33.709Z,12.13
2019-04-21T13:27:06.782Z,10.10
2019-04-21T13:29:38.586Z,10.30
2019-04-21T13:32:10.780Z,8.77
2019-04-21T13:34:44.193Z,8.40
2019-04-21T13:37:15.664Z,8.40
2019-04-21T13:40:25.197Z,8.50
2019-04-21T13:42:43.822Z,8.60
2019-04-21T13:45:12.222Z,9.00
2019-04-21T13:47:43.646Z,8.60
2019-04-21T13:50:17.238Z,9.17
2019-04-21T13:52:48.962Z,8.80
2019-04-21T13:55:21.349Z,9.40
2019-04-21T13:57:52.823Z,9.33
2019-04-21T14:00:24.495Z,9.70
2019-04-21T14:02:56.503Z,9.83
2019-04-21T14:05:28.678Z,10.80
2019-04-21T14:08:00.986Z,9.40
2019-04-21T14:10:33.512Z,8.97
2019-04-21T14:13:06.606Z,8.93
2019-04-21T14:15:38.081Z,8.53
2019-04-21T14:18:09.386Z,8.60
2019-04-21T14:20:40.719Z,8.00
2019-04-21T14:23:21.334Z,8.77
2019-04-21T14:25:45.807Z,8.17
2019-04-21T14:28:17.833Z,7.53
2019-04-21T14:30:50.454Z,7.43
2019-04-21T14:33:23.437Z,8.03
2019-04-21T14:35:54.867Z,8.27
2019-04-21T14:38:26.792Z,8.40
2019-04-21T14:40:58.369Z,7.73
2019-04-21T14:43:30.089Z,8.37
2019-04-21T14:46:21.464Z,7.47
2019-04-21T14:49:15.188Z,8.17
2019-04-21T14:52:05.301Z,8.40
2019-04-21T14:55:00.681Z,8.70
2019-04-21T14:57:31.980Z,9.27
2019-04-21T15:00:04.836Z,9.13
2019-04-21T15:02:36.245Z,9.27
2019-04-21T15:05:09.470Z,8.90
2019-04-21T15:07:41.445Z,9.47
2019-04-21T15:10:20.089Z,9.67
2019-04-21T15:12:47.791Z,8.93
2019-04-21T15:15:20.180Z,8.40
2019-04-21T15:17:51.645Z,8.93
2019-04-21T15:20:23.841Z,8.23
2019-04-21T15:22:56.584Z,8.77
2019-04-21T15:25:28.019Z,7.43
2019-04-21T15:27:59.341Z,8.60
2019-04-21T15:30:32.448Z,9.53
2019-04-21T15:33:04.519Z,9.97
2019-04-21T15:35:37.355Z,8.63
2019-04-21T15:38:09.761Z,7.17
2019-04-21T15:40:49.656Z,8.50
2019-04-21T15:43:14.742Z,7.77
2019-04-21T15:45:46.786Z,8.00
2019-04-21T15:48:18.319Z,9.17
2019-04-21T15:50:51.547Z,9.27
2019-04-21T15:53:23.648Z,8.50
2019-04-21T15:56:08.719Z,9.27
2019-04-21T15:58:46.408Z,7.90
2019-04-21T16:01:36.475Z,7.93
2019-04-21T16:04:08.055Z,8.00
2019-04-21T16:06:39.672Z,8.60
2019-04-21T16:09:14.895Z,8.50
2019-04-21T16:11:46.371Z,8.10
2019-04-21T16:14:20.594Z,7.70
2019-04-21T16:16:53.566Z,6.73
2019-04-21T16:19:25.210Z,7.63
2019-04-21T16:21:56.797Z,7.40
2019-04-21T16:24:28.168Z,7.50
2019-04-21T16:27:01.698Z,7.17
2019-04-21T16:29:33.289Z,7.07
2019-04-21T16:32:04.953Z,7.90
2019-04-21T16:34:45.631Z,6.10
2019-04-21T16:37:09.774Z,7.83
2019-04-21T16:39:45.338Z,7.70
2019-04-21T16:42:16.681Z,7.20
2019-04-21T16:44:49.170Z,7.10
2019-04-21T16:47:21.505Z,7.43
2019-04-21T16:49:53.923Z,7.30
2019-04-21T16:52:30.004Z,6.83
2019-04-21T16:55:07.061Z,7.37
2019-04-21T16:57:59.474Z,6.57
2019-04-21T17:00:31.605Z,7.30
2019-04-21T17:02:58.799Z,6.50
2019-04-21T17:05:30.168Z,6.83
2019-04-21T17:08:01.852Z,7.30
2019-04-21T17:10:33.255Z,6.90
2019-04-21T17:13:06.202Z,6.70
2019-04-21T17:15:56.679Z,6.20
2019-04-21T17:18:25.588Z,6.57
2019-04-21T17:20:49.160Z,7.67
2019-04-21T17:23:19.737Z,6.73
2019-04-21T17:25:51.058Z,7.13
2019-04-21T17:28:23.526Z,7.50
2019-04-21T17:30:54.808Z,6.90
2019-04-21T17:33:28.330Z,6.73
2019-04-21T17:35:59.148Z,6.87
2019-04-21T17:38:30.591Z,5.97
2019-04-21T17:41:13.876Z,6.33
2019-04-21T17:43:35.678Z,6.90
2019-04-21T17:46:07.220Z,6.70
2019-04-21T17:48:38.775Z,7.27
2019-04-21T17:51:29.850Z,7.00
2019-04-21T17:54:13.914Z,6.37
2019-04-21T17:59:44.774Z,7.07
2019-04-21T18:02:00.459Z,7.10
2019-04-21T18:04:37.466Z,6.50
2019-04-21T18:07:27.445Z,7.80
2019-04-21T18:10:04.734Z,7.50
2019-04-21T18:12:40.028Z,7.63
2019-04-21T18:15:08.396Z,8.77
2019-04-21T18:17:28.673Z,9.70
2019-04-21T18:20:01.666Z,9.20
2019-04-21T18:23:02.364Z,10.07
2019-04-21T18:25:44.886Z,9.20
2019-04-21T18:28:08.237Z,9.80
2019-04-21T18:30:46.930Z,8.80
2019-04-21T18:33:25.317Z,9.90
2019-04-21T18:36:34.841Z,9.60
2019-04-21T18:39:49.530Z,11.00
2019-04-21T18:42:31.129Z,11.63
2019-04-21T18:45:45.814Z,11.33
2019-04-21T18:48:21.782Z,11.27
2019-04-21T18:51:00.281Z,11.80
2019-04-21T18:53:44.767Z,16.53
2019-04-21T18:56:06.452Z,17.43
2019-04-21T18:58:36.156Z,19.77
2019-04-21T19:01:16.365Z,21.70
2019-04-21T19:03:44.992Z,18.13
2019-04-21T19:06:18.796Z,18.20
2019-04-21T19:09:04.852Z,19.20
2019-04-21T19:11:33.235Z,17.90
2019-04-21T19:14:34.693Z,17.50
2019-04-21T19:17:29.227Z,15.90
2019-04-21T19:19:44.475Z,15.40
2019-04-21T19:22:10.490Z,14.53
2019-04-21T19:25:00.407Z,15.17
2019-04-21T19:27:17.619Z,15.00
2019-04-21T19:29:58.311Z,14.80
2019-04-21T19:34:40.395Z,14.93
2019-04-21T19:37:14.957Z,14.67
2019-04-21T19:39:56.677Z,13.77
2019-04-21T19:42:25.668Z,14.10
2019-04-21T19:45:05.927Z,15.10
2019-04-21T19:47:40.583Z,14.30
2019-04-21T19:50:19.525Z,14.67
2019-04-21T19:52:39.902Z,17.30
2019-04-21T19:55:02.542Z,17.40
2019-04-21T19:57:34.724Z,17.63
2019-04-21T20:00:08.200Z,18.23
2019-04-21T20:02:40.535Z,16.47
2019-04-21T20:05:20.227Z,18.60
2019-04-21T20:08:04.124Z,17.73
2019-04-21T20:10:39.540Z,17.13
2019-04-21T20:13:14.549Z,18.80
2019-04-21T20:15:44.731Z,18.10
2019-04-21T20:18:07.188Z,17.90
2019-04-21T20:20:30.970Z,17.97
2019-04-21T20:23:03.056Z,17.30
2019-04-21T20:25:42.407Z,17.57
2019-04-21T20:28:16.086Z,20.17
2019-04-21T20:30:58.320Z,21.73
2019-04-21T20:33:48.715Z,21.97
2019-04-21T20:36:09.715Z,23.50
2019-04-21T20:38:31.099Z,24.90
2019-04-21T20:41:00.134Z,23.47
2019-04-21T20:43:42.529Z,20.70
2019-04-21T20:46:12.344Z,20.97
2019-04-21T20:48:48.078Z,20.30
2019-04-21T20:51:21.909Z,21.77
2019-04-21T20:53:53.849Z,22.33
2019-04-21T20:56:21.179Z,23.53
2019-04-21T20:59:04.480Z,21.77
2019-04-21T21:01:34.820Z,22.33
2019-04-21T21:04:10.266Z,24.53
2019-04-21T21:06:36.032Z,24.67
2019-04-21T21:09:10.151Z,25.43
2019-04-21T21:11:56.554Z,25.00
2019-04-21T21:14:26.914Z,24.60
2019-04-21T21:16:58.105Z,27.90
2019-04-21T21:19:28.910Z,27.90
2019-04-21T21:21:56.455Z,27.70
2019-04-21T21:24:38.815Z,26.63
2019-04-21T21:27:05.920Z,25.73
2019-04-21T21:29:33.578Z,26.33
2019-04-21T21:32:16.681Z,27.57
2019-04-21T21:34:47.914Z,29.20
2019-04-21T21:37:26.802Z,27.63
2019-04-21T21:39:57.117Z,28.73
2019-04-21T21:42:07.572Z,26.30
2019-04-21T21:44:41.721Z,30.37
2019-04-21T21:47:26.147Z,27.33
2019-04-21T21:49:55.430Z,30.20
2019-04-21T21:52:32.739Z,26.63
2019-04-21T21:54:49.864Z,26.43
2019-04-21T21:57:21.209Z,26.63
2019-04-21T21:59:58.838Z,25.77
2019-04-21T22:02:35.318Z,26.97
2019-04-21T22:05:08.712Z,26.07
2019-04-21T22:07:33.668Z,25.47
2019-04-21T22:10:06.336Z,26.60
2019-04-21T22:12:45.706Z,28.30
2019-04-21T22:15:18.840Z,28.50
2019-04-21T22:18:01.144Z,27.70
2019-04-21T22:20:37.809Z,28.40
2019-04-21T22:23:00.651Z,27.80
2019-04-21T22:25:28.227Z,29.60
2019-04-21T22:27:57.909Z,27.97
2019-04-21T22:30:37.044Z,30.53
2019-04-21T22:33:08.288Z,31.23
2019-04-21T22:35:42.556Z,30.47
2019-04-21T22:38:23.390Z,30.00
2019-04-21T22:40:55.478Z,32.33
2019-04-21T22:43:24.477Z,32.27
2019-04-21T22:45:49.394Z,30.87
2019-04-21T22:48:23.644Z,30.80
2019-04-21T22:50:53.784Z,31.50
2019-04-21T22:53:29.336Z,30.60
2019-04-21T22:56:04.332Z,29.00
2019-04-21T22:58:35.703Z,30.63
2019-04-21T23:01:05.576Z,29.23
2019-04-21T23:03:40.141Z,30.10
2019-04-21T23:06:16.208Z,29.23
2019-04-21T23:08:45.657Z,29.23
2019-04-21T23:11:16.678Z,30.30
2019-04-21T23:13:52.660Z,28.93
2019-04-21T23:16:29.317Z,30.50
2019-04-21T23:19:10.991Z,31.60
2019-04-21T23:21:48.466Z,30.40
2019-04-21T23:24:14.869Z,29.20
2019-04-21T23:26:48.611Z,30.77
2019-04-21T23:29:25.854Z,29.20
2019-04-21T23:31:55.059Z,30.40
2019-04-21T23:34:18.449Z,29.97
2019-04-21T23:36:54.373Z,29.80
2019-04-21T23:39:23.660Z,32.43
2019-04-21T23:41:52.945Z,31.40
2019-04-21T23:44:24.091Z,29.70
2019-04-21T23:47:00.987Z,31.30
2019-04-21T23:49:40.551Z,30.93
2019-04-21T23:52:05.247Z,33.43
2019-04-21T23:54:35.481Z,32.67
2019-04-21T23:57:14.315Z,32.67
2019-04-21T23:59:51.274Z,32.10
